sensor_id;sensor_type;location;lat;lon;timestamp;pressure;altitude;pressure_sealevel;temperature;humidity
27014;BME280;14556;52.222;4.510;2023-05-08T00:00:49;101401.84;;;10.31;100.00
27014;BME280;14556;52.222;4.510;2023-05-08T00:03:21;101406.16;;;10.16;100.00
27014;BME280;14556;52.222;4.510;2023-05-08T00:05:49;101414.78;;;10.03;100.00
27014;BME280;14556;52.222;4.510;2023-05-08T00:08:15;101413.50;;;9.99;100.00
27014;BME280;14556;52.222;4.510;2023-05-08T00:10:42;101416.38;;;10.13;100.00
27014;BME280;14556;52.222;4.510;2023-05-08T00:13:08;101403.31;;;10.18;100.00
27014;BME280;14556;52.222;4.510;2023-05-08T00:15:35;101404.75;;;10.06;100.00
27014;BME280;14556;52.222;4.510;2023-05-08T00:18:01;101399.69;;;9.96;100.00
27014;BME280;14556;52.222;4.510;2023-05-08T00:20:28;101408.94;;;10.08;100.00
27014;BME280;14556;52.222;4.510;2023-05-08T00:22:54;101399.97;;;10.16;100.00
27014;BME280;14556;52.222;4.510;2023-05-08T00:25:23;101402.91;;;10.06;100.00
27014;BME280;14556;52.222;4.510;2023-05-08T00:27:49;101401.81;;;10.00;100.00
27014;BME280;14556;52.222;4.510;2023-05-08T00:30:16;101406.78;;;10.03;100.00
27014;BME280;14556;52.222;4.510;2023-05-08T00:32:42;101402.38;;;10.11;100.00
27014;BME280;14556;52.222;4.510;2023-05-08T00:35:09;101395.94;;;10.05;100.00
27014;BME280;14556;52.222;4.510;2023-05-08T00:37:35;101389.16;;;9.94;100.00
27014;BME280;14556;52.222;4.510;2023-05-08T00:40:07;101416.66;;;10.03;100.00
27014;BME280;14556;52.222;4.510;2023-05-08T00:42:34;101407.78;;;10.02;100.00
27014;BME280;14556;52.222;4.510;2023-05-08T00:45:01;101417.66;;;10.02;100.00
27014;BME280;14556;52.222;4.510;2023-05-08T00:47:29;101410.25;;;9.89;100.00
27014;BME280;14556;52.222;4.510;2023-05-08T00:49:57;101404.06;;;9.88;100.00
27014;BME280;14556;52.222;4.510;2023-05-08T00:52:27;101387.56;;;9.85;100.00
27014;BME280;14556;52.222;4.510;2023-05-08T00:54:55;101396.91;;;9.89;100.00
27014;BME280;14556;52.222;4.510;2023-05-08T00:57:22;101394.41;;;9.87;100.00
27014;BME280;14556;52.222;4.510;2023-05-08T00:59:50;101400.56;;;9.88;100.00
27014;BME280;14556;52.222;4.510;2023-05-08T01:02:18;101404.25;;;9.87;100.00
27014;BME280;14556;52.222;4.510;2023-05-08T01:04:47;101399.75;;;9.87;100.00
27014;BME280;14556;52.222;4.510;2023-05-08T01:07:13;101400.75;;;9.86;100.00
27014;BME280;14556;52.222;4.510;2023-05-08T01:09:41;101391.34;;;9.75;100.00
27014;BME280;14556;52.222;4.510;2023-05-08T01:12:39;101373.06;;;9.64;100.00
27014;BME280;14556;52.222;4.510;2023-05-08T01:15:37;101406.72;;;9.73;100.00
27014;BME280;14556;52.222;4.510;2023-05-08T01:18:10;101400.53;;;9.73;100.00
27014;BME280;14556;52.222;4.510;2023-05-08T01:26:50;101410.63;;;9.62;100.00
27014;BME280;14556;52.222;4.510;2023-05-08T01:29:56;101406.31;;;9.61;100.00
27014;BME280;14556;52.222;4.510;2023-05-08T01:32:35;101404.81;;;9.59;100.00
27014;BME280;14556;52.222;4.510;2023-05-08T01:35:23;101416.63;;;9.64;100.00
27014;BME280;14556;52.222;4.510;2023-05-08T01:38:13;101409.84;;;9.53;100.00
27014;BME280;14556;52.222;4.510;2023-05-08T01:40:51;101406.59;;;9.43;100.00
27014;BME280;14556;52.222;4.510;2023-05-08T01:43:34;101398.16;;;9.31;100.00
27014;BME280;14556;52.222;4.510;2023-05-08T01:46:09;101407.63;;;9.34;100.00
27014;BME280;14556;52.222;4.510;2023-05-08T01:48:53;101389.38;;;9.22;100.00
27014;BME280;14556;52.222;4.510;2023-05-08T01:51:22;101393.03;;;9.21;100.00
27014;BME280;14556;52.222;4.510;2023-05-08T01:53:55;101418.22;;;9.50;100.00
27014;BME280;14556;52.222;4.510;2023-05-08T01:56:24;101411.09;;;9.42;100.00
27014;BME280;14556;52.222;4.510;2023-05-08T01:58:53;101423.94;;;9.47;100.00
27014;BME280;14556;52.222;4.510;2023-05-08T02:01:23;101426.91;;;9.52;100.00
27014;BME280;14556;52.222;4.510;2023-05-08T02:03:52;101417.25;;;9.43;100.00
27014;BME280;14556;52.222;4.510;2023-05-08T02:06:20;101419.69;;;9.29;100.00
27014;BME280;14556;52.222;4.510;2023-05-08T02:08:48;101423.16;;;9.30;100.00
27014;BME280;14556;52.222;4.510;2023-05-08T02:11:17;101426.31;;;9.34;100.00
27014;BME280;14556;52.222;4.510;2023-05-08T02:13:46;101424.31;;;9.36;100.00
27014;BME280;14556;52.222;4.510;2023-05-08T02:16:13;101423.63;;;9.42;100.00
27014;BME280;14556;52.222;4.510;2023-05-08T02:18:48;101425.22;;;9.51;100.00
27014;BME280;14556;52.222;4.510;2023-05-08T02:21:17;101424.84;;;9.54;100.00
27014;BME280;14556;52.222;4.510;2023-05-08T02:23:44;101433.22;;;9.51;100.00
27014;BME280;14556;52.222;4.510;2023-05-08T02:26:14;101409.31;;;9.35;100.00
27014;BME280;14556;52.222;4.510;2023-05-08T02:28:41;101425.41;;;9.50;100.00
27014;BME280;14556;52.222;4.510;2023-05-08T02:31:09;101423.69;;;9.57;100.00
27014;BME280;14556;52.222;4.510;2023-05-08T02:33:39;101422.72;;;9.50;100.00
27014;BME280;14556;52.222;4.510;2023-05-08T02:36:07;101423.25;;;9.45;100.00
27014;BME280;14556;52.222;4.510;2023-05-08T02:38:36;101431.69;;;9.57;100.00
27014;BME280;14556;52.222;4.510;2023-05-08T02:41:04;101405.72;;;9.51;100.00
27014;BME280;14556;52.222;4.510;2023-05-08T02:43:31;101428.84;;;9.59;100.00
27014;BME280;14556;52.222;4.510;2023-05-08T02:54:18;101421.59;;;9.44;100.00
27014;BME280;14556;52.222;4.510;2023-05-08T02:56:55;101419.41;;;9.48;100.00
27014;BME280;14556;52.222;4.510;2023-05-08T03:02:05;101391.03;;;9.47;100.00
27014;BME280;14556;52.222;4.510;2023-05-08T03:04:37;101402.31;;;9.57;100.00
27014;BME280;14556;52.222;4.510;2023-05-08T03:07:05;101400.78;;;9.63;100.00
27014;BME280;14556;52.222;4.510;2023-05-08T03:09:44;101405.75;;;9.66;100.00
27014;BME280;14556;52.222;4.510;2023-05-08T03:12:14;101400.13;;;9.61;100.00
27014;BME280;14556;52.222;4.510;2023-05-08T03:14:49;101404.91;;;9.65;100.00
27014;BME280;14556;52.222;4.510;2023-05-08T03:17:20;101405.22;;;9.71;100.00
27014;BME280;14556;52.222;4.510;2023-05-08T03:19:51;101409.38;;;9.73;100.00
27014;BME280;14556;52.222;4.510;2023-05-08T03:22:21;101411.88;;;9.75;100.00
27014;BME280;14556;52.222;4.510;2023-05-08T03:24:49;101403.84;;;9.75;100.00
27014;BME280;14556;52.222;4.510;2023-05-08T03:27:16;101417.69;;;9.78;100.00
27014;BME280;14556;52.222;4.510;2023-05-08T03:29:44;101394.22;;;9.65;100.00
27014;BME280;14556;52.222;4.510;2023-05-08T03:32:12;101404.38;;;9.70;100.00
27014;BME280;14556;52.222;4.510;2023-05-08T03:34:39;101416.56;;;9.73;100.00
27014;BME280;14556;52.222;4.510;2023-05-08T03:37:06;101404.03;;;9.73;100.00
27014;BME280;14556;52.222;4.510;2023-05-08T03:39:32;101400.06;;;9.69;100.00
27014;BME280;14556;52.222;4.510;2023-05-08T03:41:59;101405.59;;;9.67;100.00
27014;BME280;14556;52.222;4.510;2023-05-08T03:44:27;101404.56;;;9.68;100.00
27014;BME280;14556;52.222;4.510;2023-05-08T03:46:54;101394.72;;;9.69;100.00
27014;BME280;14556;52.222;4.510;2023-05-08T03:49:24;101400.81;;;9.78;100.00
27014;BME280;14556;52.222;4.510;2023-05-08T03:51:55;101393.66;;;9.78;100.00
27014;BME280;14556;52.222;4.510;2023-05-08T03:54:23;101397.50;;;9.76;100.00
27014;BME280;14556;52.222;4.510;2023-05-08T03:56:52;101394.16;;;9.74;100.00
27014;BME280;14556;52.222;4.510;2023-05-08T03:59:25;101398.34;;;9.76;100.00
27014;BME280;14556;52.222;4.510;2023-05-08T04:01:58;101403.97;;;9.82;100.00
27014;BME280;14556;52.222;4.510;2023-05-08T04:04:29;101407.28;;;9.84;100.00
27014;BME280;14556;52.222;4.510;2023-05-08T04:07:07;101400.94;;;9.85;100.00
27014;BME280;14556;52.222;4.510;2023-05-08T04:09:48;101398.72;;;9.88;100.00
27014;BME280;14556;52.222;4.510;2023-05-08T04:12:19;101401.22;;;9.90;100.00
27014;BME280;14556;52.222;4.510;2023-05-08T04:14:52;101406.00;;;9.95;100.00
27014;BME280;14556;52.222;4.510;2023-05-08T04:17:30;101408.81;;;10.01;100.00
27014;BME280;14556;52.222;4.510;2023-05-08T04:20:02;101410.28;;;10.04;100.00
27014;BME280;14556;52.222;4.510;2023-05-08T04:22:31;101412.97;;;10.04;100.00
27014;BME280;14556;52.222;4.510;2023-05-08T04:25:02;101418.84;;;9.99;100.00
27014;BME280;14556;52.222;4.510;2023-05-08T04:27:29;101429.63;;;9.91;100.00
27014;BME280;14556;52.222;4.510;2023-05-08T04:29:56;101422.59;;;9.90;100.00
27014;BME280;14556;52.222;4.510;2023-05-08T04:32:24;101426.00;;;9.84;100.00
27014;BME280;14556;52.222;4.510;2023-05-08T04:34:51;101429.16;;;9.87;100.00
27014;BME280;14556;52.222;4.510;2023-05-08T04:37:25;101429.66;;;9.83;100.00
27014;BME280;14556;52.222;4.510;2023-05-08T04:39:52;101439.53;;;9.82;100.00
27014;BME280;14556;52.222;4.510;2023-05-08T04:42:19;101432.34;;;9.83;100.00
27014;BME280;14556;52.222;4.510;2023-05-08T04:44:46;101436.88;;;9.82;100.00
27014;BME280;14556;52.222;4.510;2023-05-08T04:47:13;101425.88;;;9.77;100.00
27014;BME280;14556;52.222;4.510;2023-05-08T04:49:39;101434.03;;;9.84;100.00
27014;BME280;14556;52.222;4.510;2023-05-08T04:52:06;101434.69;;;9.86;100.00
27014;BME280;14556;52.222;4.510;2023-05-08T04:54:33;101440.03;;;9.86;100.00
27014;BME280;14556;52.222;4.510;2023-05-08T04:56:59;101430.31;;;9.85;100.00
27014;BME280;14556;52.222;4.510;2023-05-08T04:59:26;101435.66;;;9.85;100.00
27014;BME280;14556;52.222;4.510;2023-05-08T05:01:55;101430.31;;;9.85;100.00
27014;BME280;14556;52.222;4.510;2023-05-08T05:04:22;101442.03;;;9.84;100.00
27014;BME280;14556;52.222;4.510;2023-05-08T05:06:48;101434.50;;;9.87;100.00
27014;BME280;14556;52.222;4.510;2023-05-08T05:09:15;101446.84;;;9.88;100.00
27014;BME280;14556;52.222;4.510;2023-05-08T05:11:41;101451.34;;;9.88;100.00
27014;BME280;14556;52.222;4.510;2023-05-08T05:14:08;101451.81;;;9.91;100.00
27014;BME280;14556;52.222;4.510;2023-05-08T05:16:34;101461.97;;;9.96;100.00
27014;BME280;14556;52.222;4.510;2023-05-08T05:19:01;101450.28;;;9.97;100.00
27014;BME280;14556;52.222;4.510;2023-05-08T05:21:27;101462.78;;;9.97;100.00
27014;BME280;14556;52.222;4.510;2023-05-08T05:23:54;101470.69;;;9.90;100.00
27014;BME280;14556;52.222;4.510;2023-05-08T05:26:20;101475.38;;;9.88;100.00
27014;BME280;14556;52.222;4.510;2023-05-08T05:28:47;101478.72;;;9.90;100.00
27014;BME280;14556;52.222;4.510;2023-05-08T05:31:14;101473.56;;;9.88;100.00
27014;BME280;14556;52.222;4.510;2023-05-08T05:33:40;101471.44;;;9.84;100.00
27014;BME280;14556;52.222;4.510;2023-05-08T05:36:08;101475.09;;;9.83;100.00
27014;BME280;14556;52.222;4.510;2023-05-08T05:38:35;101480.31;;;9.76;100.00
27014;BME280;14556;52.222;4.510;2023-05-08T05:41:01;101485.47;;;9.77;100.00
27014;BME280;14556;52.222;4.510;2023-05-08T05:43:28;101482.81;;;9.77;100.00
27014;BME280;14556;52.222;4.510;2023-05-08T05:45:55;101483.00;;;9.76;100.00
27014;BME280;14556;52.222;4.510;2023-05-08T05:48:21;101483.88;;;9.68;100.00
27014;BME280;14556;52.222;4.510;2023-05-08T05:50:48;101491.72;;;9.70;100.00
27014;BME280;14556;52.222;4.510;2023-05-08T05:53:14;101495.88;;;9.72;100.00
27014;BME280;14556;52.222;4.510;2023-05-08T05:55:41;101499.69;;;9.78;100.00
27014;BME280;14556;52.222;4.510;2023-05-08T05:58:07;101492.16;;;9.82;100.00
27014;BME280;14556;52.222;4.510;2023-05-08T06:00:34;101499.44;;;9.88;100.00
27014;BME280;14556;52.222;4.510;2023-05-08T06:03:00;101498.75;;;9.94;100.00
27014;BME280;14556;52.222;4.510;2023-05-08T06:05:28;101499.41;;;9.96;100.00
27014;BME280;14556;52.222;4.510;2023-05-08T06:07:55;101498.00;;;10.00;100.00
27014;BME280;14556;52.222;4.510;2023-05-08T06:10:22;101486.19;;;9.95;100.00
27014;BME280;14556;52.222;4.510;2023-05-08T06:12:49;101507.94;;;10.15;100.00
27014;BME280;14556;52.222;4.510;2023-05-08T06:15:16;101501.38;;;10.18;100.00
27014;BME280;14556;52.222;4.510;2023-05-08T06:17:42;101488.31;;;10.23;100.00
27014;BME280;14556;52.222;4.510;2023-05-08T06:20:09;101495.16;;;10.25;100.00
27014;BME280;14556;52.222;4.510;2023-05-08T06:22:35;101494.78;;;10.28;100.00
27014;BME280;14556;52.222;4.510;2023-05-08T06:25:06;101491.28;;;10.28;100.00
27014;BME280;14556;52.222;4.510;2023-05-08T06:27:32;101493.63;;;10.31;100.00
27014;BME280;14556;52.222;4.510;2023-05-08T06:30:03;101486.06;;;10.35;100.00
27014;BME280;14556;52.222;4.510;2023-05-08T06:32:30;101486.63;;;10.45;100.00
27014;BME280;14556;52.222;4.510;2023-05-08T06:34:56;101487.94;;;10.49;100.00
27014;BME280;14556;52.222;4.510;2023-05-08T06:37:23;101491.94;;;10.54;100.00
27014;BME280;14556;52.222;4.510;2023-05-08T06:39:49;101486.03;;;10.58;100.00
27014;BME280;14556;52.222;4.510;2023-05-08T06:42:35;101481.78;;;10.64;100.00
27014;BME280;14556;52.222;4.510;2023-05-08T06:45:02;101483.91;;;10.69;100.00
27014;BME280;14556;52.222;4.510;2023-05-08T06:47:29;101478.00;;;10.58;100.00
27014;BME280;14556;52.222;4.510;2023-05-08T06:49:56;101489.25;;;10.69;100.00
27014;BME280;14556;52.222;4.510;2023-05-08T06:52:23;101496.81;;;10.65;100.00
27014;BME280;14556;52.222;4.510;2023-05-08T06:54:51;101493.16;;;10.66;100.00
27014;BME280;14556;52.222;4.510;2023-05-08T06:57:17;101486.13;;;10.65;100.00
27014;BME280;14556;52.222;4.510;2023-05-08T06:59:44;101487.78;;;10.66;100.00
27014;BME280;14556;52.222;4.510;2023-05-08T07:02:10;101489.25;;;10.69;100.00
27014;BME280;14556;52.222;4.510;2023-05-08T07:04:37;101489.81;;;10.79;100.00
27014;BME280;14556;52.222;4.510;2023-05-08T07:07:04;101486.59;;;10.84;100.00
27014;BME280;14556;52.222;4.510;2023-05-08T07:09:32;101482.34;;;10.74;100.00
27014;BME280;14556;52.222;4.510;2023-05-08T07:11:58;101486.69;;;10.75;100.00
27014;BME280;14556;52.222;4.510;2023-05-08T07:14:25;101480.84;;;10.72;100.00
27014;BME280;14556;52.222;4.510;2023-05-08T07:16:53;101478.13;;;10.80;100.00
27014;BME280;14556;52.222;4.510;2023-05-08T07:19:19;101472.09;;;10.78;100.00
27014;BME280;14556;52.222;4.510;2023-05-08T07:21:48;101475.63;;;10.79;100.00
27014;BME280;14556;52.222;4.510;2023-05-08T07:24:14;101443.78;;;10.54;100.00
27014;BME280;14556;52.222;4.510;2023-05-08T07:26:41;101466.84;;;10.85;100.00
27014;BME280;14556;52.222;4.510;2023-05-08T07:29:07;101470.72;;;10.97;100.00
27014;BME280;14556;52.222;4.510;2023-05-08T07:31:34;101474.66;;;11.02;100.00
27014;BME280;14556;52.222;4.510;2023-05-08T07:34:01;101474.50;;;11.03;100.00
27014;BME280;14556;52.222;4.510;2023-05-08T07:36:29;101475.88;;;10.99;100.00
27014;BME280;14556;52.222;4.510;2023-05-08T07:38:55;101478.66;;;11.06;100.00
27014;BME280;14556;52.222;4.510;2023-05-08T07:41:22;101481.03;;;11.16;100.00
27014;BME280;14556;52.222;4.510;2023-05-08T07:43:49;101476.50;;;11.16;100.00
27014;BME280;14556;52.222;4.510;2023-05-08T07:46:16;101467.81;;;11.14;100.00
27014;BME280;14556;52.222;4.510;2023-05-08T07:48:43;101472.72;;;11.10;100.00
27014;BME280;14556;52.222;4.510;2023-05-08T07:51:10;101474.22;;;11.13;100.00
27014;BME280;14556;52.222;4.510;2023-05-08T07:53:36;101486.09;;;11.10;100.00
27014;BME280;14556;52.222;4.510;2023-05-08T07:56:03;101483.25;;;11.12;100.00
27014;BME280;14556;52.222;4.510;2023-05-08T07:58:30;101481.13;;;11.22;100.00
27014;BME280;14556;52.222;4.510;2023-05-08T08:00:57;101477.13;;;11.33;100.00
27014;BME280;14556;52.222;4.510;2023-05-08T08:03:23;101476.84;;;11.43;100.00
27014;BME280;14556;52.222;4.510;2023-05-08T08:05:50;101483.59;;;11.39;100.00
27014;BME280;14556;52.222;4.510;2023-05-08T08:08:16;101479.16;;;11.31;100.00
27014;BME280;14556;52.222;4.510;2023-05-08T08:10:43;101469.53;;;11.37;100.00
27014;BME280;14556;52.222;4.510;2023-05-08T08:13:09;101470.00;;;11.41;100.00
27014;BME280;14556;52.222;4.510;2023-05-08T08:15:36;101476.72;;;11.52;100.00
27014;BME280;14556;52.222;4.510;2023-05-08T08:18:02;101473.84;;;11.53;100.00
27014;BME280;14556;52.222;4.510;2023-05-08T08:20:29;101472.72;;;11.63;100.00
27014;BME280;14556;52.222;4.510;2023-05-08T08:22:55;101465.69;;;11.61;100.00
27014;BME280;14556;52.222;4.510;2023-05-08T08:25:23;101463.13;;;11.75;100.00
27014;BME280;14556;52.222;4.510;2023-05-08T08:27:49;101456.28;;;12.09;100.00
27014;BME280;14556;52.222;4.510;2023-05-08T08:30:16;101462.28;;;12.12;100.00
27014;BME280;14556;52.222;4.510;2023-05-08T08:32:44;101458.97;;;11.94;100.00
27014;BME280;14556;52.222;4.510;2023-05-08T08:35:11;101463.78;;;11.99;100.00
27014;BME280;14556;52.222;4.510;2023-05-08T08:37:39;101457.84;;;12.04;100.00
27014;BME280;14556;52.222;4.510;2023-05-08T08:40:06;101459.88;;;12.24;100.00
27014;BME280;14556;52.222;4.510;2023-05-08T08:42:33;101455.47;;;12.16;100.00
27014;BME280;14556;52.222;4.510;2023-05-08T08:44:59;101461.00;;;12.36;100.00
27014;BME280;14556;52.222;4.510;2023-05-08T08:47:27;101452.31;;;12.34;100.00
27014;BME280;14556;52.222;4.510;2023-05-08T08:49:57;101451.69;;;12.32;100.00
27014;BME280;14556;52.222;4.510;2023-05-08T08:52:45;101459.81;;;12.45;100.00
27014;BME280;14556;52.222;4.510;2023-05-08T08:55:15;101446.38;;;12.39;100.00
27014;BME280;14556;52.222;4.510;2023-05-08T08:57:50;101443.91;;;12.44;100.00
27014;BME280;14556;52.222;4.510;2023-05-08T09:00:18;101456.25;;;12.67;100.00
27014;BME280;14556;52.222;4.510;2023-05-08T09:02:46;101448.44;;;12.72;100.00
27014;BME280;14556;52.222;4.510;2023-05-08T09:05:14;101444.34;;;12.76;100.00
27014;BME280;14556;52.222;4.510;2023-05-08T09:07:41;101450.78;;;12.89;100.00
27014;BME280;14556;52.222;4.510;2023-05-08T09:10:09;101437.00;;;12.99;100.00
27014;BME280;14556;52.222;4.510;2023-05-08T09:12:41;101451.16;;;13.35;100.00
27014;BME280;14556;52.222;4.510;2023-05-08T09:15:08;101448.69;;;13.47;100.00
27014;BME280;14556;52.222;4.510;2023-05-08T09:17:34;101455.34;;;13.51;100.00
27014;BME280;14556;52.222;4.510;2023-05-08T09:20:01;101464.06;;;13.53;100.00
27014;BME280;14556;52.222;4.510;2023-05-08T09:22:28;101454.31;;;13.52;100.00
27014;BME280;14556;52.222;4.510;2023-05-08T09:24:59;101457.06;;;13.59;100.00
27014;BME280;14556;52.222;4.510;2023-05-08T09:27:27;101453.31;;;13.66;100.00
27014;BME280;14556;52.222;4.510;2023-05-08T09:30:02;101453.34;;;13.80;100.00
27014;BME280;14556;52.222;4.510;2023-05-08T09:32:30;101454.38;;;13.72;100.00
27014;BME280;14556;52.222;4.510;2023-05-08T09:34:58;101452.09;;;13.62;100.00
27014;BME280;14556;52.222;4.510;2023-05-08T09:37:25;101460.09;;;13.49;100.00
27014;BME280;14556;52.222;4.510;2023-05-08T09:39:52;101470.19;;;13.47;100.00
27014;BME280;14556;52.222;4.510;2023-05-08T09:42:19;101468.34;;;13.47;100.00
27014;BME280;14556;52.222;4.510;2023-05-08T09:44:51;101472.88;;;13.47;100.00
27014;BME280;14556;52.222;4.510;2023-05-08T09:47:20;101472.88;;;13.47;100.00
27014;BME280;14556;52.222;4.510;2023-05-08T09:50:07;101474.41;;;13.56;100.00
27014;BME280;14556;52.222;4.510;2023-05-08T09:52:35;101468.22;;;13.62;100.00
27014;BME280;14556;52.222;4.510;2023-05-08T09:55:07;101461.59;;;13.72;100.00
27014;BME280;14556;52.222;4.510;2023-05-08T09:57:36;101471.16;;;13.81;100.00
27014;BME280;14556;52.222;4.510;2023-05-08T10:00:09;101465.34;;;13.98;100.00
27014;BME280;14556;52.222;4.510;2023-05-08T10:02:41;101460.19;;;14.03;100.00
27014;BME280;14556;52.222;4.510;2023-05-08T10:07:52;101463.28;;;14.13;100.00
27014;BME280;14556;52.222;4.510;2023-05-08T10:10:25;101460.00;;;14.11;100.00
27014;BME280;14556;52.222;4.510;2023-05-08T10:12:54;101446.94;;;14.08;100.00
27014;BME280;14556;52.222;4.510;2023-05-08T10:15:22;101464.72;;;14.30;100.00
27014;BME280;14556;52.222;4.510;2023-05-08T10:17:54;101464.72;;;14.43;100.00
27014;BME280;14556;52.222;4.510;2023-05-08T10:20:27;101468.03;;;14.45;100.00
27014;BME280;14556;52.222;4.510;2023-05-08T10:22:55;101459.94;;;14.52;100.00
27014;BME280;14556;52.222;4.510;2023-05-08T10:25:23;101464.91;;;14.55;100.00
27014;BME280;14556;52.222;4.510;2023-05-08T10:28:12;101469.06;;;14.51;100.00
27014;BME280;14556;52.222;4.510;2023-05-08T10:30:44;101469.47;;;14.55;100.00
27014;BME280;14556;52.222;4.510;2023-05-08T10:33:20;101435.94;;;14.50;100.00
27014;BME280;14556;52.222;4.510;2023-05-08T10:35:51;101463.69;;;14.51;100.00
27014;BME280;14556;52.222;4.510;2023-05-08T10:38:18;101460.16;;;14.50;100.00
27014;BME280;14556;52.222;4.510;2023-05-08T10:40:45;101468.22;;;14.50;100.00
27014;BME280;14556;52.222;4.510;2023-05-08T10:43:13;101466.38;;;14.51;100.00
27014;BME280;14556;52.222;4.510;2023-05-08T10:45:40;101473.81;;;14.56;100.00
27014;BME280;14556;52.222;4.510;2023-05-08T10:48:24;101464.06;;;14.61;100.00
27014;BME280;14556;52.222;4.510;2023-05-08T10:51:09;101475.66;;;14.55;100.00
27014;BME280;14556;52.222;4.510;2023-05-08T10:53:52;101466.78;;;14.55;100.00
27014;BME280;14556;52.222;4.510;2023-05-08T10:56:27;101471.53;;;14.59;100.00
27014;BME280;14556;52.222;4.510;2023-05-08T10:58:55;101455.59;;;14.58;100.00
27014;BME280;14556;52.222;4.510;2023-05-08T11:01:23;101460.31;;;14.62;100.00
27014;BME280;14556;52.222;4.510;2023-05-08T11:03:51;101460.94;;;14.65;100.00
27014;BME280;14556;52.222;4.510;2023-05-08T11:06:41;101453.25;;;14.82;100.00
27014;BME280;14556;52.222;4.510;2023-05-08T11:09:13;101452.41;;;14.95;100.00
27014;BME280;14556;52.222;4.510;2023-05-08T11:11:41;101450.34;;;14.97;100.00
27014;BME280;14556;52.222;4.510;2023-05-08T11:14:15;101443.03;;;15.11;100.00
27014;BME280;14556;52.222;4.510;2023-05-08T11:17:02;101441.78;;;15.07;100.00
27014;BME280;14556;52.222;4.510;2023-05-08T11:19:29;101442.97;;;15.18;100.00
27014;BME280;14556;52.222;4.510;2023-05-08T11:22:19;101441.25;;;15.30;100.00
27014;BME280;14556;52.222;4.510;2023-05-08T11:24:55;101424.88;;;15.32;100.00
27014;BME280;14556;52.222;4.510;2023-05-08T11:30:32;101429.34;;;15.45;100.00
27014;BME280;14556;52.222;4.510;2023-05-08T11:35:41;101427.88;;;15.49;100.00
27014;BME280;14556;52.222;4.510;2023-05-08T11:38:14;101428.50;;;15.51;100.00
27014;BME280;14556;52.222;4.510;2023-05-08T11:43:28;101426.94;;;15.62;100.00
27014;BME280;14556;52.222;4.510;2023-05-08T11:45:59;101410.13;;;15.67;100.00
27014;BME280;14556;52.222;4.510;2023-05-08T11:48:26;101424.34;;;15.81;100.00
27014;BME280;14556;52.222;4.510;2023-05-08T11:50:53;101427.91;;;15.75;100.00
27014;BME280;14556;52.222;4.510;2023-05-08T11:53:19;101421.31;;;15.70;100.00
27014;BME280;14556;52.222;4.510;2023-05-08T11:55:51;101420.53;;;15.63;100.00
27014;BME280;14556;52.222;4.510;2023-05-08T11:58:18;101423.91;;;15.52;100.00
27014;BME280;14556;52.222;4.510;2023-05-08T12:00:45;101427.88;;;15.49;100.00
27014;BME280;14556;52.222;4.510;2023-05-08T12:05:43;101423.50;;;15.48;100.00
27014;BME280;14556;52.222;4.510;2023-05-08T12:08:11;101419.84;;;15.42;100.00
27014;BME280;14556;52.222;4.510;2023-05-08T12:10:58;101419.41;;;15.45;100.00
27014;BME280;14556;52.222;4.510;2023-05-08T12:13:27;101406.63;;;15.34;100.00
27014;BME280;14556;52.222;4.510;2023-05-08T12:15:56;101421.81;;;15.54;100.00
27014;BME280;14556;52.222;4.510;2023-05-08T12:18:25;101410.13;;;15.67;100.00
27014;BME280;14556;52.222;4.510;2023-05-08T12:20:52;101411.88;;;15.80;100.00
27014;BME280;14556;52.222;4.510;2023-05-08T12:23:19;101412.31;;;15.77;100.00
27014;BME280;14556;52.222;4.510;2023-05-08T12:25:46;101410.47;;;15.77;100.00
27014;BME280;14556;52.222;4.510;2023-05-08T12:28:12;101393.16;;;15.85;100.00
27014;BME280;14556;52.222;4.510;2023-05-08T12:30:39;101400.31;;;15.98;100.00
27014;BME280;14556;52.222;4.510;2023-05-08T12:33:07;101402.06;;;16.18;100.00
27014;BME280;14556;52.222;4.510;2023-05-08T12:35:35;101394.09;;;16.23;100.00
27014;BME280;14556;52.222;4.510;2023-05-08T12:38:04;101397.63;;;16.24;100.00
27014;BME280;14556;52.222;4.510;2023-05-08T12:40:40;101393.88;;;16.25;100.00
27014;BME280;14556;52.222;4.510;2023-05-08T12:43:09;101398.44;;;16.24;100.00
27014;BME280;14556;52.222;4.510;2023-05-08T12:45:37;101396.13;;;16.28;100.00
27014;BME280;14556;52.222;4.510;2023-05-08T12:48:09;101382.03;;;16.26;100.00
27014;BME280;14556;52.222;4.510;2023-05-08T12:50:38;101393.97;;;16.37;100.00
27014;BME280;14556;52.222;4.510;2023-05-08T12:53:07;101369.13;;;16.09;100.00
27014;BME280;14556;52.222;4.510;2023-05-08T12:55:36;101393.66;;;16.07;100.00
27014;BME280;14556;52.222;4.510;2023-05-08T12:58:05;101384.97;;;15.99;100.00
27014;BME280;14556;52.222;4.510;2023-05-08T13:03:09;101385.97;;;16.04;100.00
27014;BME280;14556;52.222;4.510;2023-05-08T13:05:40;101374.59;;;15.95;100.00
27014;BME280;14556;52.222;4.510;2023-05-08T13:08:08;101385.38;;;16.02;100.00
27014;BME280;14556;52.222;4.510;2023-05-08T13:10:53;101378.59;;;15.93;100.00
27014;BME280;14556;52.222;4.510;2023-05-08T13:13:21;101383.97;;;15.93;100.00
27014;BME280;14556;52.222;4.510;2023-05-08T13:15:49;101392.75;;;15.88;100.00
27014;BME280;14556;52.222;4.510;2023-05-08T13:18:16;101389.66;;;15.85;100.00
27014;BME280;14556;52.222;4.510;2023-05-08T13:20:43;101389.34;;;15.74;100.00
27014;BME280;14556;52.222;4.510;2023-05-08T13:23:10;101389.00;;;15.64;100.00
27014;BME280;14556;52.222;4.510;2023-05-08T13:25:38;101393.13;;;15.66;100.00
27014;BME280;14556;52.222;4.510;2023-05-08T13:28:07;101390.63;;;15.65;100.00